createdAt,value
2018-09-18T00:01:41.345Z,11.33
2018-09-18T00:04:10.233Z,12.00
2018-09-18T00:06:39.200Z,11.50
2018-09-18T00:09:09.657Z,12.07
2018-09-18T00:11:38.788Z,11.37
2018-09-18T00:14:07.748Z,11.80
2018-09-18T00:16:36.690Z,12.57
2018-09-18T00:19:05.925Z,12.23
2018-09-18T00:21:34.800Z,12.27
2018-09-18T00:24:07.660Z,13.23
2018-09-18T00:26:36.577Z,11.77
2018-09-18T00:29:07.659Z,12.00
2018-09-18T00:31:37.820Z,13.20
2018-09-18T00:34:07.400Z,12.77
2018-09-18T00:36:36.452Z,11.27
2018-09-18T00:39:08.641Z,11.33
2018-09-18T00:41:37.684Z,10.83
2018-09-18T00:44:07.332Z,12.20
2018-09-18T00:46:36.180Z,11.67
2018-09-18T00:49:07.484Z,11.87
2018-09-18T00:51:36.388Z,12.23
2018-09-18T00:54:08.653Z,14.27
2018-09-18T00:56:37.492Z,12.13
2018-09-18T00:59:08.168Z,12.27
2018-09-18T01:01:37.048Z,14.60
2018-09-18T01:04:05.972Z,10.97
2018-09-18T01:06:34.874Z,12.67
2018-09-18T01:09:04.676Z,11.93
2018-09-18T01:11:33.636Z,11.60
2018-09-18T01:14:02.540Z,11.67
2018-09-18T01:16:31.454Z,11.03
2018-09-18T01:19:00.276Z,10.90
2018-09-18T01:21:29.192Z,11.80
2018-09-18T01:23:58.021Z,11.53
2018-09-18T01:26:27.008Z,11.53
2018-09-18T01:28:55.840Z,12.47
2018-09-18T01:31:24.732Z,12.93
2018-09-18T01:33:53.684Z,13.90
2018-09-18T01:36:22.577Z,11.40
2018-09-18T01:38:51.420Z,12.40
2018-09-18T01:41:20.344Z,11.23
2018-09-18T01:43:49.243Z,11.20
2018-09-18T01:46:18.112Z,10.37
2018-09-18T01:48:46.956Z,11.00
2018-09-18T01:51:15.852Z,10.57
2018-09-18T01:53:44.688Z,13.07
2018-09-18T01:56:13.568Z,11.33
2018-09-18T01:58:42.448Z,11.23
2018-09-18T02:01:11.442Z,17.10
2018-09-18T02:03:40.358Z,15.30
2018-09-18T02:06:09.313Z,11.50
2018-09-18T02:08:38.228Z,11.27
2018-09-18T02:11:07.128Z,15.53
2018-09-18T02:13:35.997Z,10.83
2018-09-18T02:16:04.856Z,10.97
2018-09-18T02:18:33.764Z,11.27
2018-09-18T02:21:02.652Z,12.33
2018-09-18T02:23:31.525Z,15.30
2018-09-18T02:26:00.342Z,12.70
2018-09-18T02:28:29.212Z,12.20
2018-09-18T02:30:58.066Z,10.77
2018-09-18T02:33:26.917Z,11.60
2018-09-18T02:35:55.777Z,11.80
2018-09-18T02:38:24.669Z,12.00
2018-09-18T02:40:53.549Z,11.00
2018-09-18T02:43:22.412Z,13.60
2018-09-18T02:45:51.292Z,11.10
2018-09-18T02:48:20.125Z,12.87
2018-09-18T02:50:49.020Z,12.37
2018-09-18T02:53:17.852Z,12.07
2018-09-18T02:55:46.765Z,11.47
2018-09-18T02:58:15.571Z,11.83
2018-09-18T03:00:44.449Z,10.83
2018-09-18T03:03:13.317Z,11.83
2018-09-18T03:05:42.226Z,10.97
2018-09-18T03:08:11.055Z,11.07
2018-09-18T03:10:39.948Z,11.60
2018-09-18T03:13:08.872Z,11.37
2018-09-18T03:15:37.760Z,13.53
2018-09-18T03:18:06.656Z,11.13
2018-09-18T03:20:35.512Z,11.60
2018-09-18T03:23:04.388Z,12.07
2018-09-18T03:25:33.289Z,12.67
2018-09-18T03:28:02.251Z,12.17
2018-09-18T03:30:31.141Z,11.83
2018-09-18T03:33:00.052Z,12.90
2018-09-18T03:35:28.975Z,16.30
2018-09-18T03:37:57.865Z,14.50
2018-09-18T03:40:26.721Z,11.10
2018-09-18T03:42:55.689Z,14.70
2018-09-18T03:45:24.548Z,11.07
2018-09-18T03:47:53.424Z,10.10
2018-09-18T03:50:22.420Z,12.77
2018-09-18T03:52:51.280Z,11.03
2018-09-18T03:55:20.120Z,10.63
2018-09-18T03:57:49.017Z,12.03
2018-09-18T04:00:17.857Z,15.73
2018-09-18T04:02:46.774Z,15.83
2018-09-18T04:05:15.619Z,12.90
2018-09-18T04:07:44.516Z,13.67
2018-09-18T04:10:13.368Z,13.47
2018-09-18T04:12:42.484Z,12.20
2018-09-18T04:15:11.401Z,12.43
2018-09-18T04:17:40.354Z,12.43
2018-09-18T04:20:09.297Z,16.87
2018-09-18T04:22:38.189Z,14.43
2018-09-18T04:25:07.069Z,11.30
2018-09-18T04:27:35.937Z,14.67
2018-09-18T04:30:04.918Z,13.60
2018-09-18T04:32:33.873Z,13.03
2018-09-18T04:35:02.801Z,12.07
2018-09-18T04:37:31.732Z,12.47
2018-09-18T04:40:00.612Z,13.33
2018-09-18T04:42:29.503Z,11.87
2018-09-18T04:44:58.385Z,13.83
2018-09-18T04:47:27.272Z,14.33
2018-09-18T04:49:56.253Z,10.97
2018-09-18T04:52:25.197Z,13.17
2018-09-18T04:54:54.061Z,13.83
2018-09-18T04:57:23.040Z,12.00
2018-09-18T04:59:51.864Z,13.10
2018-09-18T05:02:20.792Z,15.57
2018-09-18T05:04:49.738Z,14.30
2018-09-18T05:07:18.657Z,15.80
2018-09-18T05:09:47.577Z,16.30
2018-09-18T05:12:16.478Z,12.07
2018-09-18T05:14:45.416Z,14.77
2018-09-18T05:17:14.342Z,12.77
2018-09-18T05:19:43.253Z,17.23
2018-09-18T05:22:12.175Z,16.33
2018-09-18T05:24:41.053Z,13.93
2018-09-18T05:27:10.028Z,14.83
2018-09-18T05:29:38.916Z,17.43
2018-09-18T05:32:07.848Z,15.03
2018-09-18T05:34:36.735Z,18.47
2018-09-18T05:37:05.699Z,18.73
2018-09-18T05:39:34.640Z,15.17
2018-09-18T05:42:03.619Z,16.73
2018-09-18T05:44:32.589Z,14.53
2018-09-18T05:47:01.605Z,14.23
2018-09-18T05:49:31.393Z,14.23
2018-09-18T05:52:01.241Z,15.17
2018-09-18T05:54:30.143Z,17.23
2018-09-18T05:56:59.072Z,17.43
2018-09-18T05:59:28.001Z,17.53
2018-09-18T06:01:56.913Z,20.17
2018-09-18T06:04:25.804Z,15.90
2018-09-18T06:06:54.733Z,19.07
2018-09-18T06:09:23.612Z,16.67
2018-09-18T06:11:52.516Z,14.03
2018-09-18T06:14:21.712Z,14.93
2018-09-18T06:16:50.628Z,15.67
2018-09-18T06:19:19.589Z,15.23
2018-09-18T06:21:48.447Z,13.17
2018-09-18T06:24:17.320Z,16.17
2018-09-18T06:26:46.269Z,19.73
2018-09-18T06:29:15.152Z,21.43
2018-09-18T06:31:44.104Z,16.33
2018-09-18T06:34:12.997Z,17.43
2018-09-18T06:36:41.928Z,18.37
2018-09-18T06:39:11.867Z,13.33
2018-09-18T06:41:41.159Z,14.83
2018-09-18T06:44:10.025Z,16.33
2018-09-18T06:46:38.948Z,14.17
2018-09-18T06:49:07.832Z,16.87
2018-09-18T06:51:36.768Z,18.30
2018-09-18T06:54:05.655Z,13.60
2018-09-18T06:56:34.556Z,16.00
2018-09-18T06:59:03.501Z,17.77
2018-09-18T07:01:32.446Z,16.40
2018-09-18T07:04:01.398Z,20.37
2018-09-18T07:06:30.293Z,16.03
2018-09-18T07:08:59.234Z,13.63
2018-09-18T07:11:28.176Z,14.73
2018-09-18T07:13:57.038Z,15.33
2018-09-18T07:16:25.957Z,14.87
2018-09-18T07:18:54.881Z,13.27
2018-09-18T07:21:23.805Z,14.80
2018-09-18T07:23:52.937Z,13.77
2018-09-18T07:26:21.957Z,13.93
2018-09-18T07:28:50.819Z,14.03
2018-09-18T07:31:19.760Z,14.43
2018-09-18T07:33:48.656Z,13.80
2018-09-18T07:36:17.584Z,15.40
2018-09-18T07:38:46.625Z,26.03
2018-09-18T07:41:15.497Z,21.63
2018-09-18T07:43:44.371Z,16.00
2018-09-18T07:46:13.244Z,15.70
2018-09-18T07:48:42.165Z,20.97
2018-09-18T07:51:11.120Z,21.30
2018-09-18T07:53:40.124Z,16.20
2018-09-18T07:56:08.980Z,21.00
2018-09-18T07:58:40.980Z,13.83
2018-09-18T08:01:12.769Z,15.53
2018-09-18T08:03:45.007Z,15.23
2018-09-18T08:06:16.597Z,13.17
2018-09-18T08:08:48.195Z,14.90
2018-09-18T08:11:19.618Z,15.20
2018-09-18T08:13:51.278Z,15.70
2018-09-18T08:16:23.151Z,15.20
2018-09-18T08:18:54.841Z,14.20
2018-09-18T08:21:27.774Z,14.83
2018-09-18T08:23:59.475Z,12.90
2018-09-18T08:26:31.082Z,13.33
2018-09-18T08:29:02.733Z,13.33
2018-09-18T08:31:46.033Z,14.00
2018-09-18T08:34:17.757Z,12.80
2018-09-18T08:36:48.812Z,14.40
2018-09-18T08:39:17.740Z,13.53
2018-09-18T08:41:59.670Z,13.33
2018-09-18T08:44:38.663Z,13.97
2018-09-18T08:47:11.254Z,12.97
2018-09-18T08:49:41.035Z,14.20
2018-09-18T08:52:10.037Z,14.10
2018-09-18T08:54:39.071Z,13.40
2018-09-18T08:57:10.358Z,14.20
2018-09-18T08:59:39.244Z,13.90
2018-09-18T09:02:08.185Z,13.27
2018-09-18T09:04:37.074Z,14.90
2018-09-18T09:07:08.829Z,15.73
2018-09-18T09:09:38.704Z,17.13
2018-09-18T09:12:08.915Z,14.30
2018-09-18T09:14:38.033Z,13.50
2018-09-18T09:17:07.509Z,14.10
2018-09-18T09:19:36.372Z,15.20
2018-09-18T09:22:05.326Z,14.57
2018-09-18T09:24:34.195Z,14.33
2018-09-18T09:27:03.077Z,14.10
2018-09-18T09:29:32.116Z,14.10
2018-09-18T09:32:01.066Z,14.93
2018-09-18T09:34:29.945Z,14.83
2018-09-18T09:36:58.846Z,14.60
2018-09-18T09:39:27.767Z,14.57
2018-09-18T09:41:56.665Z,13.23
2018-09-18T09:44:25.556Z,13.23
2018-09-18T09:46:54.554Z,16.90
2018-09-18T09:49:23.437Z,14.83
2018-09-18T09:51:52.408Z,13.55
2018-09-18T09:54:21.553Z,13.00
2018-09-18T09:56:50.476Z,17.45
2018-09-18T09:59:19.366Z,14.58
2018-09-18T10:01:55.265Z,15.95
2018-09-18T10:04:24.421Z,13.15
2018-09-18T10:06:53.384Z,14.30
2018-09-18T10:09:22.317Z,12.98
2018-09-18T10:11:51.213Z,13.58
2018-09-18T10:14:20.209Z,14.58
2018-09-18T10:16:49.132Z,12.63
2018-09-18T10:19:18.103Z,12.90
2018-09-18T10:21:46.958Z,14.05
2018-09-18T10:24:15.822Z,11.93
2018-09-18T10:26:44.789Z,11.45
2018-09-18T10:29:13.623Z,11.65
2018-09-18T10:31:42.493Z,17.77
2018-09-18T10:34:11.404Z,11.63
2018-09-18T10:36:40.356Z,11.48
2018-09-18T10:39:10.441Z,11.00
2018-09-18T10:41:39.363Z,11.38
2018-09-18T10:44:08.408Z,11.83
2018-09-18T10:46:37.795Z,12.10
2018-09-18T10:49:06.742Z,11.22
2018-09-18T10:51:36.390Z,11.70
2018-09-18T10:54:05.297Z,13.53
2018-09-18T10:56:34.177Z,13.32
2018-09-18T10:59:03.389Z,12.68
2018-09-18T11:01:32.472Z,11.18
2018-09-18T11:04:01.428Z,11.65
2018-09-18T11:06:30.317Z,13.95
2018-09-18T11:08:59.331Z,12.40
2018-09-18T11:11:28.262Z,12.63
2018-09-18T11:13:57.370Z,10.90
2018-09-18T11:16:26.409Z,11.30
2018-09-18T11:18:55.421Z,10.48
2018-09-18T11:21:24.352Z,11.20
2018-09-18T11:23:55.991Z,10.48
2018-09-18T11:26:25.501Z,11.22
2018-09-18T11:28:54.665Z,11.38
2018-09-18T11:31:23.560Z,10.58
2018-09-18T11:33:52.801Z,10.15
2018-09-18T11:36:21.729Z,11.40
2018-09-18T11:38:50.626Z,10.40
2018-09-18T11:41:19.673Z,11.22
2018-09-18T11:43:48.616Z,9.43
2018-09-18T11:46:17.569Z,10.60
2018-09-18T11:48:46.563Z,10.20
2018-09-18T11:51:15.461Z,9.30
2018-09-18T11:53:44.418Z,8.90
2018-09-18T11:56:13.361Z,9.78
2018-09-18T11:58:42.366Z,11.33
2018-09-18T12:01:11.526Z,12.68
2018-09-18T12:03:40.524Z,9.73
2018-09-18T12:06:09.494Z,10.85
2018-09-18T12:08:38.390Z,10.72
2018-09-18T12:11:07.437Z,9.95
2018-09-18T12:13:36.456Z,9.28
2018-09-18T12:16:05.453Z,9.98
2018-09-18T12:18:34.454Z,9.98
2018-09-18T12:21:03.448Z,9.80
2018-09-18T12:23:32.453Z,10.43
2018-09-18T12:26:01.364Z,9.23
2018-09-18T12:28:30.350Z,9.48
2018-09-18T12:30:59.652Z,9.75
2018-09-18T12:33:29.256Z,10.10
2018-09-18T12:35:58.173Z,9.98
2018-09-18T12:38:27.081Z,9.05
2018-09-18T12:40:56.045Z,12.33
2018-09-18T12:43:25.018Z,9.63
2018-09-18T12:45:53.908Z,12.35
2018-09-18T12:48:22.959Z,9.88
2018-09-18T12:50:52.269Z,10.55
2018-09-18T12:53:21.317Z,10.13
2018-09-18T12:55:50.189Z,8.70
2018-09-18T12:58:19.105Z,10.13
2018-09-18T13:00:48.058Z,9.60
2018-09-18T13:03:16.981Z,9.08
2018-09-18T13:05:45.972Z,9.45
2018-09-18T13:08:14.994Z,8.40
2018-09-18T13:10:43.844Z,10.90
2018-09-18T13:13:12.805Z,8.68
2018-09-18T13:15:42.339Z,8.60
2018-09-18T13:18:11.423Z,9.93
2018-09-18T13:20:41.796Z,7.47
2018-09-18T13:23:11.525Z,8.85
2018-09-18T13:25:40.578Z,10.88
2018-09-18T13:28:09.529Z,11.60
2018-09-18T13:30:38.480Z,11.88
2018-09-18T13:33:07.765Z,10.08
2018-09-18T13:35:36.681Z,9.90
2018-09-18T13:38:07.828Z,8.43
2018-09-18T13:40:36.741Z,9.10
2018-09-18T13:43:07.683Z,8.83
2018-09-18T13:45:36.813Z,9.75
2018-09-18T13:48:07.588Z,8.95
2018-09-18T13:50:36.591Z,9.10
2018-09-18T13:53:07.861Z,9.25
2018-09-18T13:55:37.073Z,9.20
2018-09-18T13:58:07.450Z,9.93
2018-09-18T14:00:36.455Z,10.98
2018-09-18T14:03:07.793Z,9.30
2018-09-18T14:05:36.755Z,8.38
2018-09-18T14:08:07.636Z,8.78
2018-09-18T14:10:36.648Z,9.58
2018-09-18T14:13:07.473Z,8.40
2018-09-18T14:15:36.505Z,9.30
2018-09-18T14:18:08.816Z,8.58
2018-09-18T14:20:37.758Z,8.20
2018-09-18T14:23:07.916Z,7.78
2018-09-18T14:25:37.961Z,7.10
2018-09-18T14:28:07.637Z,7.05
2018-09-18T14:30:36.560Z,7.55
2018-09-18T14:33:08.507Z,7.55
2018-09-18T14:35:37.525Z,8.18
2018-09-18T14:38:09.015Z,7.53
2018-09-18T14:40:38.138Z,7.53
2018-09-18T14:43:08.173Z,7.08
2018-09-18T14:45:37.106Z,8.78
2018-09-18T14:48:07.761Z,8.05
2018-09-18T14:50:36.761Z,10.55
2018-09-18T14:53:07.515Z,8.20
2018-09-18T14:55:36.415Z,7.03
2018-09-18T14:58:07.957Z,7.22
2018-09-18T15:00:36.926Z,7.00
2018-09-18T15:03:07.428Z,8.55
2018-09-18T15:05:36.417Z,7.08
2018-09-18T15:08:08.013Z,10.08
2018-09-18T15:10:36.996Z,8.50
2018-09-18T15:13:08.225Z,8.50
2018-09-18T15:15:37.257Z,8.88
2018-09-18T15:18:08.799Z,8.00
2018-09-18T15:20:37.704Z,8.63
2018-09-18T15:23:07.848Z,8.55
2018-09-18T15:25:36.972Z,7.40
2018-09-18T15:28:08.405Z,8.43
2018-09-18T15:30:37.268Z,7.70
2018-09-18T15:33:07.648Z,8.35
2018-09-18T15:35:36.598Z,7.25
2018-09-18T15:38:07.984Z,7.85
2018-09-18T15:40:37.002Z,7.00
2018-09-18T15:43:07.560Z,8.95
2018-09-18T15:45:36.593Z,10.32
2018-09-18T15:48:05.442Z,13.40
2018-09-18T15:50:34.372Z,7.15
2018-09-18T15:53:03.278Z,9.68
2018-09-18T15:55:32.237Z,13.78
2018-09-18T15:58:01.138Z,8.63
2018-09-18T16:00:30.077Z,11.43
2018-09-18T16:02:59.036Z,13.43
2018-09-18T16:05:27.945Z,9.93
2018-09-18T16:07:56.831Z,9.25
2018-09-18T16:10:25.782Z,9.45
2018-09-18T16:12:54.661Z,8.93
2018-09-18T16:15:23.633Z,8.15
2018-09-18T16:17:52.564Z,9.00
2018-09-18T16:20:21.482Z,8.40
2018-09-18T16:22:50.553Z,10.15
2018-09-18T16:25:19.375Z,10.88
2018-09-18T16:27:48.313Z,8.05
2018-09-18T16:30:17.222Z,10.25
2018-09-18T16:32:46.138Z,8.13
2018-09-18T16:35:15.056Z,8.73
2018-09-18T16:37:43.968Z,9.00
2018-09-18T16:40:12.883Z,9.10
2018-09-18T16:42:41.849Z,8.95
2018-09-18T16:45:10.806Z,9.38
2018-09-18T16:47:39.808Z,9.23
2018-09-18T16:50:08.765Z,9.68
2018-09-18T16:52:37.721Z,13.35
2018-09-18T16:55:06.801Z,8.60
2018-09-18T16:57:35.624Z,9.48
2018-09-18T17:00:04.789Z,9.65
2018-09-18T17:02:33.720Z,11.15
2018-09-18T17:05:03.215Z,13.40
2018-09-18T17:07:32.592Z,15.03
2018-09-18T17:10:01.502Z,10.10
2018-09-18T17:12:30.510Z,12.70
2018-09-18T17:14:59.498Z,10.08
2018-09-18T17:17:28.464Z,9.85
2018-09-18T17:19:57.497Z,16.85
2018-09-18T17:22:28.924Z,9.88
2018-09-18T17:24:58.058Z,8.63
2018-09-18T17:27:27.110Z,11.80
2018-09-18T17:29:56.018Z,10.55
2018-09-18T17:32:25.077Z,7.78
2018-09-18T17:34:54.083Z,11.60
2018-09-18T17:37:23.061Z,9.83
2018-09-18T17:39:52.192Z,8.37
2018-09-18T17:42:22.566Z,10.08
2018-09-18T17:44:51.529Z,10.43
2018-09-18T17:47:20.538Z,10.37
2018-09-18T17:49:49.509Z,9.87
2018-09-18T17:52:18.491Z,9.50
2018-09-18T17:54:47.515Z,9.83
2018-09-18T17:57:16.506Z,9.70
2018-09-18T17:59:45.868Z,11.27
2018-09-18T18:02:15.040Z,11.47
2018-09-18T18:04:44.104Z,13.50
2018-09-18T18:07:13.059Z,16.70
2018-09-18T18:09:42.677Z,14.77
2018-09-18T18:12:11.778Z,14.77
2018-09-18T18:14:40.807Z,14.97
2018-09-18T18:17:09.777Z,13.27
2018-09-18T18:19:38.725Z,16.67
2018-09-18T18:22:07.957Z,12.10
2018-09-18T18:24:36.906Z,12.00
2018-09-18T18:27:06.629Z,10.03
2018-09-18T18:29:36.339Z,10.70
2018-09-18T18:32:05.398Z,12.63
2018-09-18T18:34:35.384Z,11.17
2018-09-18T18:37:04.388Z,11.20
2018-09-18T18:39:33.537Z,16.83
2018-09-18T18:42:02.640Z,12.03
2018-09-18T18:44:31.673Z,13.07
2018-09-18T18:47:00.725Z,17.93
2018-09-18T18:49:33.835Z,12.17
2018-09-18T18:52:02.838Z,12.23
2018-09-18T18:54:31.761Z,13.37
2018-09-18T18:57:01.356Z,12.93
2018-09-18T18:59:30.361Z,11.60
2018-09-18T19:01:59.264Z,12.40
2018-09-18T19:04:28.758Z,13.30
2018-09-18T19:06:57.758Z,12.70
2018-09-18T19:09:26.699Z,14.83
2018-09-18T19:11:55.649Z,15.17
2018-09-18T19:14:24.655Z,14.73
2018-09-18T19:16:53.568Z,14.73
2018-09-18T19:19:22.555Z,13.10
2018-09-18T19:21:51.533Z,15.67
2018-09-18T19:24:20.883Z,14.47
2018-09-18T19:26:49.800Z,15.43
2018-09-18T19:29:18.819Z,13.43
2018-09-18T19:31:47.709Z,20.43
2018-09-18T19:34:16.629Z,14.40
2018-09-18T19:36:45.561Z,17.47
2018-09-18T19:39:14.861Z,29.20
2018-09-18T19:41:43.728Z,28.23
2018-09-18T19:44:12.648Z,15.10
2018-09-18T19:46:42.552Z,14.70
2018-09-18T19:49:11.417Z,15.80
2018-09-18T19:51:40.332Z,13.07
2018-09-18T19:54:09.230Z,12.90
2018-09-18T19:56:38.168Z,11.40
2018-09-18T19:59:07.095Z,13.93
2018-09-18T20:01:36.156Z,14.13
2018-09-18T20:04:05.025Z,14.17
2018-09-18T20:06:34.019Z,12.77
2018-09-18T20:09:03.282Z,16.27
2018-09-18T20:11:32.227Z,14.43
2018-09-18T20:14:01.134Z,14.07
2018-09-18T20:16:30.076Z,13.97
2018-09-18T20:18:59.358Z,11.83
2018-09-18T20:21:28.264Z,12.33
2018-09-18T20:23:57.492Z,12.83
2018-09-18T20:26:27.008Z,12.57
2018-09-18T20:28:55.912Z,12.37
2018-09-18T20:31:24.890Z,14.67
2018-09-18T20:33:53.783Z,11.77
2018-09-18T20:36:22.896Z,14.07
2018-09-18T20:38:51.765Z,11.93
2018-09-18T20:41:20.753Z,12.77
2018-09-18T20:43:50.058Z,14.53
2018-09-18T20:46:18.964Z,11.53
2018-09-18T20:48:47.928Z,10.87
2018-09-18T20:51:16.909Z,12.93
2018-09-18T20:53:46.170Z,11.87
2018-09-18T20:56:15.065Z,12.33
2018-09-18T20:58:43.987Z,11.97
2018-09-18T21:01:12.836Z,12.27
2018-09-18T21:03:42.603Z,13.23
2018-09-18T21:06:11.613Z,14.60
2018-09-18T21:08:40.495Z,14.03
2018-09-18T21:11:09.424Z,16.80
2018-09-18T21:13:38.272Z,12.60
2018-09-18T21:16:07.512Z,12.43
2018-09-18T21:18:36.721Z,14.47
2018-09-18T21:21:05.796Z,14.40
2018-09-18T21:23:34.725Z,11.47
2018-09-18T21:26:07.946Z,12.47
2018-09-18T21:28:37.926Z,12.27
2018-09-18T21:31:07.575Z,12.37
2018-09-18T21:33:36.567Z,12.83
2018-09-18T21:36:05.508Z,13.80
2018-09-18T21:38:34.369Z,13.63
2018-09-18T21:41:03.382Z,12.30
2018-09-18T21:43:32.743Z,12.43
2018-09-18T21:46:01.647Z,10.60
2018-09-18T21:48:30.755Z,12.53
2018-09-18T21:50:59.671Z,13.97
2018-09-18T21:53:28.624Z,13.63
2018-09-18T21:55:57.591Z,11.60
2018-09-18T21:58:26.432Z,12.23
2018-09-18T22:00:55.348Z,10.80
2018-09-18T22:03:24.181Z,12.03
2018-09-18T22:05:53.169Z,11.67
2018-09-18T22:08:22.084Z,12.60
2018-09-18T22:10:50.956Z,14.00
2018-09-18T22:13:19.824Z,13.57
2018-09-18T22:15:48.715Z,11.53
2018-09-18T22:18:17.652Z,11.40
2018-09-18T22:20:46.506Z,11.73
2018-09-18T22:23:15.445Z,11.97
2018-09-18T22:25:44.302Z,11.50
2018-09-18T22:28:13.192Z,11.43
2018-09-18T22:30:42.060Z,11.93
2018-09-18T22:33:10.960Z,11.90
2018-09-18T22:35:39.848Z,13.30
2018-09-18T22:38:08.716Z,10.67
2018-09-18T22:40:37.710Z,12.83
2018-09-18T22:43:06.656Z,12.30
2018-09-18T22:45:35.523Z,13.33
2018-09-18T22:48:04.433Z,11.77
2018-09-18T22:50:33.417Z,11.70
2018-09-18T22:53:02.282Z,11.47
2018-09-18T22:55:31.247Z,14.93
2018-09-18T22:58:00.139Z,12.80
2018-09-18T23:00:29.039Z,12.57
2018-09-18T23:02:57.900Z,12.53
2018-09-18T23:05:26.832Z,12.03
2018-09-18T23:07:55.655Z,11.70
2018-09-18T23:10:24.551Z,12.23
2018-09-18T23:12:53.549Z,11.87
2018-09-18T23:15:22.454Z,10.83
2018-09-18T23:17:51.337Z,11.33
2018-09-18T23:20:20.257Z,11.93
2018-09-18T23:22:49.135Z,12.37
2018-09-18T23:25:18.054Z,13.60
2018-09-18T23:27:47.028Z,11.07
2018-09-18T23:30:15.917Z,13.43
2018-09-18T23:32:44.836Z,13.50
2018-09-18T23:35:13.716Z,11.87
2018-09-18T23:37:42.612Z,11.40
2018-09-18T23:40:11.460Z,12.20
2018-09-18T23:42:40.390Z,12.87
2018-09-18T23:45:09.243Z,13.23
2018-09-18T23:47:38.177Z,14.17
2018-09-18T23:50:07.049Z,12.73
2018-09-18T23:52:35.936Z,13.20
2018-09-18T23:55:04.952Z,11.40
2018-09-18T23:57:33.856Z,10.93
